createdAt,value
2022-08-04T00:00:03.103Z,978.14
2022-08-04T00:01:03.402Z,978.20
2022-08-04T00:02:03.399Z,978.12
2022-08-04T00:03:03.204Z,978.12
2022-08-04T00:04:03.386Z,978.18
2022-08-04T00:05:05.843Z,978.18
2022-08-04T00:06:03.250Z,978.30
2022-08-04T00:07:03.285Z,978.21
2022-08-04T00:08:03.382Z,978.09
2022-08-04T00:09:03.490Z,978.15
2022-08-04T00:10:03.804Z,978.24
2022-08-04T00:11:03.021Z,978.04
2022-08-04T00:12:03.115Z,978.15
2022-08-04T00:13:03.148Z,978.13
2022-08-04T00:14:04.144Z,978.30
2022-08-04T00:15:03.310Z,978.27
2022-08-04T00:16:03.263Z,978.22
2022-08-04T00:17:03.303Z,978.30
2022-08-04T00:18:03.255Z,978.31
2022-08-04T00:19:03.438Z,978.16
2022-08-04T00:20:03.392Z,978.28
2022-08-04T00:21:03.444Z,978.19
2022-08-04T00:22:03.505Z,978.19
2022-08-04T00:23:03.434Z,978.25
2022-08-04T00:24:12.798Z,978.08
2022-08-04T00:25:03.438Z,978.11
2022-08-04T00:26:03.625Z,978.14
2022-08-04T00:27:03.669Z,978.02
2022-08-04T00:28:03.544Z,978.08
2022-08-04T00:29:03.850Z,977.96
2022-08-04T00:30:03.741Z,977.96
2022-08-04T00:31:09.198Z,978.08
2022-08-04T00:32:02.989Z,977.99
2022-08-04T00:33:02.883Z,977.99
2022-08-04T00:34:03.225Z,978.02
2022-08-04T00:35:03.889Z,978.11
2022-08-04T00:36:03.003Z,978.11
2022-08-04T00:37:03.592Z,977.97
2022-08-04T00:38:02.915Z,978.00
2022-08-04T00:39:04.448Z,978.14
2022-08-04T00:40:02.996Z,978.03
2022-08-04T00:41:03.054Z,978.17
2022-08-04T00:42:03.020Z,978.11
2022-08-04T00:43:03.020Z,978.14
2022-08-04T00:44:03.019Z,978.09
2022-08-04T00:45:03.037Z,978.03
2022-08-04T00:46:18.013Z,977.97
2022-08-04T00:47:03.042Z,977.97
2022-08-04T00:48:03.077Z,977.88
2022-08-04T00:49:03.141Z,978.06
2022-08-04T00:50:03.220Z,978.03
2022-08-04T00:51:03.335Z,978.00
2022-08-04T00:52:33.974Z,977.97
2022-08-04T00:53:03.323Z,978.03
2022-08-04T00:54:03.351Z,977.95
2022-08-04T00:55:09.332Z,978.00
2022-08-04T00:56:03.167Z,977.92
2022-08-04T00:57:03.238Z,977.92
2022-08-04T00:58:03.239Z,977.95
2022-08-04T00:59:03.361Z,978.03
2022-08-04T01:00:03.411Z,978.01
2022-08-04T01:01:03.613Z,977.98
2022-08-04T01:02:03.479Z,977.95
2022-08-04T01:03:03.589Z,977.89
2022-08-04T01:04:04.021Z,977.95
2022-08-04T01:05:03.617Z,977.86
2022-08-04T01:06:03.631Z,978.01
2022-08-04T01:07:03.668Z,978.04
2022-08-04T01:08:03.728Z,977.95
2022-08-04T01:09:03.758Z,977.93
2022-08-04T01:10:03.814Z,977.93
2022-08-04T01:11:03.824Z,977.93
2022-08-04T01:12:03.861Z,977.90
2022-08-04T01:13:10.117Z,978.07
2022-08-04T01:14:03.882Z,977.96
2022-08-04T01:15:03.919Z,978.05
2022-08-04T01:16:03.002Z,977.93
2022-08-04T01:17:03.004Z,977.87
2022-08-04T01:18:03.042Z,977.99
2022-08-04T01:19:03.105Z,977.87
2022-08-04T01:20:03.086Z,977.93
2022-08-04T01:21:03.339Z,977.90
2022-08-04T01:22:03.347Z,977.99
2022-08-04T01:23:03.300Z,977.85
2022-08-04T01:24:03.319Z,978.05
2022-08-04T01:25:06.774Z,977.94
2022-08-04T01:26:42.063Z,977.88
2022-08-04T01:27:04.297Z,977.97
2022-08-04T01:28:03.146Z,977.88
2022-08-04T01:29:03.241Z,977.85
2022-08-04T01:30:03.305Z,977.97
2022-08-04T01:31:03.421Z,977.82
2022-08-04T01:32:03.400Z,977.82
2022-08-04T01:33:03.414Z,977.97
2022-08-04T01:34:05.113Z,977.82
2022-08-04T01:35:03.632Z,977.80
2022-08-04T01:36:03.720Z,977.80
2022-08-04T01:37:03.683Z,978.00
2022-08-04T01:38:22.194Z,977.82
2022-08-04T01:39:03.836Z,977.80
2022-08-04T01:40:03.802Z,977.86
2022-08-04T01:41:03.829Z,977.86
2022-08-04T01:42:03.822Z,977.91
2022-08-04T01:43:03.805Z,977.89
2022-08-04T01:44:03.849Z,977.92
2022-08-04T01:45:03.150Z,977.89
2022-08-04T01:46:03.198Z,977.80
2022-08-04T01:47:03.385Z,977.89
2022-08-04T01:48:03.375Z,977.77
2022-08-04T01:49:04.343Z,977.83
2022-08-04T01:50:03.517Z,977.89
2022-08-04T01:51:03.697Z,977.74
2022-08-04T01:52:03.772Z,977.75
2022-08-04T01:53:03.799Z,977.75
2022-08-04T01:54:03.862Z,977.80
2022-08-04T01:55:03.900Z,977.89
2022-08-04T01:56:03.881Z,977.81
2022-08-04T01:57:39.558Z,977.81
2022-08-04T01:58:02.993Z,977.78
2022-08-04T01:59:03.044Z,977.84
2022-08-04T02:00:03.108Z,977.84
2022-08-04T02:01:09.166Z,977.72
2022-08-04T02:02:03.394Z,977.90
2022-08-04T02:03:03.217Z,977.75
2022-08-04T02:04:23.605Z,977.75
2022-08-04T02:05:03.115Z,977.69
2022-08-04T02:06:04.603Z,977.75
2022-08-04T02:07:03.129Z,977.81
2022-08-04T02:08:03.192Z,977.72
2022-08-04T02:09:03.346Z,977.78
2022-08-04T02:10:03.329Z,977.76
2022-08-04T02:11:03.414Z,977.67
2022-08-04T02:12:03.394Z,977.73
2022-08-04T02:13:03.420Z,977.67
2022-08-04T02:14:03.466Z,977.73
2022-08-04T02:15:03.590Z,977.79
2022-08-04T02:16:03.581Z,977.59
2022-08-04T02:17:03.635Z,977.62
2022-08-04T02:18:03.725Z,977.54
2022-08-04T02:19:03.711Z,977.70
2022-08-04T02:20:03.637Z,977.73
2022-08-04T02:21:03.678Z,977.54
2022-08-04T02:22:03.844Z,977.60
2022-08-04T02:23:03.804Z,977.65
2022-08-04T02:24:02.948Z,977.48
2022-08-04T02:25:03.082Z,977.45
2022-08-04T02:26:03.476Z,977.60
2022-08-04T02:27:03.651Z,977.51
2022-08-04T02:28:03.675Z,977.54
2022-08-04T02:29:03.830Z,977.42
2022-08-04T02:30:03.881Z,977.48
2022-08-04T02:31:03.827Z,977.57
2022-08-04T02:32:02.967Z,977.48
2022-08-04T02:33:03.077Z,977.45
2022-08-04T02:34:03.725Z,977.57
2022-08-04T02:35:03.762Z,977.54
2022-08-04T02:36:03.669Z,977.52
2022-08-04T02:37:03.776Z,977.60
2022-08-04T02:38:03.752Z,977.54
2022-08-04T02:39:04.006Z,977.52
2022-08-04T02:40:02.902Z,977.60
2022-08-04T02:41:02.993Z,977.49
2022-08-04T02:42:03.096Z,977.55
2022-08-04T02:43:03.178Z,977.46
2022-08-04T02:44:03.234Z,977.52
2022-08-04T02:45:03.217Z,977.66
2022-08-04T02:46:03.257Z,977.55
2022-08-04T02:47:03.198Z,977.46
2022-08-04T02:48:31.641Z,977.55
2022-08-04T02:49:03.279Z,977.55
2022-08-04T02:50:03.350Z,977.55
2022-08-04T02:51:03.471Z,977.50
2022-08-04T02:52:03.493Z,977.61
2022-08-04T02:53:03.550Z,977.66
2022-08-04T02:54:03.547Z,977.66
2022-08-04T02:55:03.550Z,977.58
2022-08-04T02:56:03.522Z,977.47
2022-08-04T02:57:08.262Z,977.47
2022-08-04T02:58:03.512Z,977.59
2022-08-04T02:59:03.657Z,977.62
2022-08-04T03:00:03.583Z,977.47
2022-08-04T03:01:03.771Z,977.59
2022-08-04T03:02:03.671Z,977.59
2022-08-04T03:03:06.579Z,977.47
2022-08-04T03:04:03.655Z,977.47
2022-08-04T03:05:03.755Z,977.56
2022-08-04T03:06:10.611Z,977.59
2022-08-04T03:07:03.794Z,977.45
2022-08-04T03:08:03.893Z,977.50
2022-08-04T03:09:03.926Z,977.56
2022-08-04T03:10:03.902Z,977.39
2022-08-04T03:11:03.482Z,977.53
2022-08-04T03:12:02.942Z,977.45
2022-08-04T03:13:03.100Z,977.48
2022-08-04T03:14:09.580Z,977.56
2022-08-04T03:15:03.237Z,977.51
2022-08-04T03:16:03.199Z,977.39
2022-08-04T03:17:03.287Z,977.45
2022-08-04T03:18:03.421Z,977.42
2022-08-04T03:19:03.388Z,977.57
2022-08-04T03:20:03.399Z,977.65
2022-08-04T03:21:03.522Z,977.45
2022-08-04T03:22:03.593Z,977.57
2022-08-04T03:23:14.230Z,977.48
2022-08-04T03:24:03.550Z,977.48
2022-08-04T03:25:03.619Z,977.45
2022-08-04T03:26:03.641Z,977.60
2022-08-04T03:27:04.555Z,977.54
2022-08-04T03:28:03.756Z,977.51
2022-08-04T03:29:03.710Z,977.54
2022-08-04T03:30:03.868Z,977.57
2022-08-04T03:31:03.930Z,977.68
2022-08-04T03:32:03.881Z,977.60
2022-08-04T03:33:03.887Z,977.55
2022-08-04T03:34:03.464Z,977.55
2022-08-04T03:35:03.041Z,977.68
2022-08-04T03:36:02.961Z,977.52
2022-08-04T03:37:02.986Z,977.74
2022-08-04T03:38:03.020Z,977.46
2022-08-04T03:39:03.237Z,977.60
2022-08-04T03:40:09.781Z,977.40
2022-08-04T03:41:03.227Z,977.66
2022-08-04T03:42:05.981Z,977.55
2022-08-04T03:43:03.144Z,977.55
2022-08-04T03:44:03.147Z,977.55
2022-08-04T03:45:03.219Z,977.58
2022-08-04T03:46:03.234Z,977.66
2022-08-04T03:47:03.385Z,977.43
2022-08-04T03:48:03.377Z,977.58
2022-08-04T03:49:03.377Z,977.43
2022-08-04T03:50:04.805Z,977.61
2022-08-04T03:51:03.405Z,977.66
2022-08-04T03:52:03.452Z,977.66
2022-08-04T03:53:03.551Z,977.72
2022-08-04T03:54:03.607Z,977.49
2022-08-04T03:55:03.676Z,977.58
2022-08-04T03:56:03.848Z,977.61
2022-08-04T03:57:03.465Z,977.49
2022-08-04T03:58:03.505Z,977.58
2022-08-04T03:59:03.586Z,977.47
2022-08-04T04:00:03.589Z,977.61
2022-08-04T04:01:03.547Z,977.61
2022-08-04T04:02:07.341Z,977.58
2022-08-04T04:03:03.599Z,977.66
2022-08-04T04:04:03.525Z,977.55
2022-08-04T04:05:03.579Z,977.58
2022-08-04T04:06:04.303Z,977.55
2022-08-04T04:07:06.095Z,977.47
2022-08-04T04:08:06.677Z,977.56
2022-08-04T04:09:06.317Z,977.69
2022-08-04T04:10:07.145Z,977.58
2022-08-04T04:11:03.763Z,977.72
2022-08-04T04:12:03.702Z,977.61
2022-08-04T04:13:07.221Z,977.61
2022-08-04T04:14:03.793Z,977.58
2022-08-04T04:15:03.752Z,977.58
2022-08-04T04:16:03.799Z,977.66
2022-08-04T04:17:03.816Z,977.58
2022-08-04T04:18:02.907Z,977.61
2022-08-04T04:19:03.040Z,977.53
2022-08-04T04:20:03.041Z,977.61
2022-08-04T04:21:03.026Z,977.61
2022-08-04T04:22:03.032Z,977.47
2022-08-04T04:23:03.013Z,977.50
2022-08-04T04:24:03.018Z,977.41
2022-08-04T04:25:03.406Z,977.72
2022-08-04T04:26:03.486Z,977.55
2022-08-04T04:27:03.623Z,977.52
2022-08-04T04:28:47.144Z,977.50
2022-08-04T04:29:03.943Z,977.58
2022-08-04T04:30:03.031Z,977.58
2022-08-04T04:31:03.042Z,977.58
2022-08-04T04:32:03.102Z,977.55
2022-08-04T04:33:03.159Z,977.55
2022-08-04T04:34:03.140Z,977.49
2022-08-04T04:35:03.191Z,977.55
2022-08-04T04:36:03.259Z,977.60
2022-08-04T04:37:03.162Z,977.65
2022-08-04T04:38:03.328Z,977.67
2022-08-04T04:39:03.555Z,977.70
2022-08-04T04:40:04.280Z,977.53
2022-08-04T04:41:03.586Z,977.40
2022-08-04T04:42:03.653Z,977.51
2022-08-04T04:43:03.632Z,977.53
2022-08-04T04:44:03.792Z,977.52
2022-08-04T04:45:03.796Z,977.40
2022-08-04T04:46:03.689Z,977.51
2022-08-04T04:47:03.891Z,977.55
2022-08-04T04:48:10.745Z,977.49
2022-08-04T04:49:03.809Z,977.51
2022-08-04T04:50:03.823Z,977.56
2022-08-04T04:51:03.766Z,977.49
2022-08-04T04:52:03.776Z,977.57
2022-08-04T04:53:02.923Z,977.62
2022-08-04T04:54:03.025Z,977.49
2022-08-04T04:55:02.976Z,977.65
2022-08-04T04:56:02.939Z,977.59
2022-08-04T04:57:03.054Z,977.61
2022-08-04T04:58:03.043Z,977.65
2022-08-04T04:59:03.207Z,977.67
2022-08-04T05:00:03.237Z,977.84
2022-08-04T05:01:03.246Z,977.74
2022-08-04T05:02:03.283Z,977.68
2022-08-04T05:03:09.484Z,977.76
2022-08-04T05:04:03.406Z,977.78
2022-08-04T05:05:03.398Z,977.83
2022-08-04T05:06:03.340Z,977.83
2022-08-04T05:07:03.327Z,977.94
2022-08-04T05:08:46.841Z,977.97
2022-08-04T05:09:03.034Z,977.96
2022-08-04T05:10:03.032Z,978.01
2022-08-04T05:11:03.024Z,978.01
2022-08-04T05:14:31.018Z,978.03
2022-08-04T05:14:40.903Z,978.11
2022-08-04T05:14:40.913Z,978.08
2022-08-04T05:15:03.448Z,978.10
2022-08-04T05:16:03.431Z,978.30
2022-08-04T05:17:03.625Z,978.15
2022-08-04T05:18:03.508Z,978.30
2022-08-04T05:19:03.530Z,978.17
2022-08-04T05:20:03.640Z,978.44
2022-08-04T05:21:03.596Z,978.32
2022-08-04T05:22:03.654Z,978.45
2022-08-04T05:23:03.722Z,978.34
2022-08-04T05:24:03.742Z,978.31
2022-08-04T05:25:03.784Z,978.39
2022-08-04T05:26:03.817Z,978.41
2022-08-04T05:27:03.855Z,978.35
2022-08-04T05:28:03.846Z,978.29
2022-08-04T05:29:02.928Z,978.40
2022-08-04T05:30:03.107Z,978.43
2022-08-04T05:31:03.057Z,978.33
2022-08-04T05:32:03.110Z,978.36
2022-08-04T05:33:03.851Z,978.46
2022-08-04T05:34:03.001Z,978.44
2022-08-04T05:35:03.223Z,978.43
2022-08-04T05:36:39.725Z,978.47
2022-08-04T05:37:03.390Z,978.50
2022-08-04T05:38:03.390Z,978.58
2022-08-04T05:39:03.526Z,978.58
2022-08-04T05:40:03.391Z,978.69
2022-08-04T05:41:03.487Z,978.66
2022-08-04T05:42:05.035Z,978.68
2022-08-04T05:43:03.523Z,978.74
2022-08-04T05:44:03.522Z,978.70
2022-08-04T05:45:03.640Z,978.82
2022-08-04T05:46:03.684Z,978.96
2022-08-04T05:47:03.746Z,978.84
2022-08-04T05:48:03.826Z,978.86
2022-08-04T05:49:03.934Z,979.01
2022-08-04T05:50:03.935Z,978.86
2022-08-04T05:51:02.986Z,979.00
2022-08-04T05:52:03.167Z,979.09
2022-08-04T05:53:03.075Z,978.99
2022-08-04T05:54:03.076Z,978.99
2022-08-04T05:55:03.195Z,979.19
2022-08-04T05:56:03.267Z,979.01
2022-08-04T05:57:03.366Z,979.04
2022-08-04T05:58:03.435Z,979.04
2022-08-04T05:59:03.502Z,979.21
2022-08-04T06:00:40.018Z,979.15
2022-08-04T06:01:03.742Z,979.08
2022-08-04T06:02:03.873Z,979.02
2022-08-04T06:03:03.710Z,979.17
2022-08-04T06:04:11.715Z,979.19
2022-08-04T06:05:03.863Z,979.22
2022-08-04T06:06:03.874Z,979.28
2022-08-04T06:07:03.915Z,979.22
2022-08-04T06:08:14.105Z,979.16
2022-08-04T06:09:03.144Z,979.21
2022-08-04T06:10:03.040Z,979.12
2022-08-04T06:11:03.109Z,979.30
2022-08-04T06:12:04.921Z,979.32
2022-08-04T06:13:03.357Z,979.11
2022-08-04T06:14:03.352Z,979.32
2022-08-04T06:15:03.411Z,979.29
2022-08-04T06:16:03.495Z,979.19
2022-08-04T06:17:03.802Z,979.25
2022-08-04T06:20:18.689Z,979.19
2022-08-04T06:20:18.696Z,979.31
2022-08-04T06:20:22.247Z,979.24
2022-08-04T06:21:03.980Z,979.24
2022-08-04T06:22:03.025Z,979.36
2022-08-04T06:23:03.028Z,979.24
2022-08-04T06:24:05.063Z,979.38
2022-08-04T06:25:02.951Z,979.32
2022-08-04T06:26:03.811Z,979.35
2022-08-04T06:27:03.113Z,979.26
2022-08-04T06:28:03.127Z,979.28
2022-08-04T06:29:03.168Z,979.34
2022-08-04T06:30:03.171Z,979.37
2022-08-04T06:32:33.479Z,979.31
2022-08-04T06:32:34.478Z,979.40
2022-08-04T06:33:05.348Z,979.28
2022-08-04T06:34:03.095Z,979.31
2022-08-04T06:35:03.056Z,979.40
2022-08-04T06:36:03.087Z,979.43
2022-08-04T06:37:03.196Z,979.43
2022-08-04T06:38:03.456Z,979.46
2022-08-04T06:39:03.289Z,979.48
2022-08-04T06:40:30.246Z,979.42
2022-08-04T06:41:03.324Z,979.57
2022-08-04T06:42:23.072Z,979.42
2022-08-04T06:43:03.550Z,979.42
2022-08-04T06:44:03.482Z,979.38
2022-08-04T06:45:03.392Z,979.38
2022-08-04T06:46:03.463Z,979.38
2022-08-04T06:47:04.791Z,979.41
2022-08-04T06:48:03.390Z,979.43
2022-08-04T06:49:03.503Z,979.37
2022-08-04T06:51:35.518Z,979.43
2022-08-04T06:51:37.212Z,979.28
2022-08-04T06:52:03.557Z,979.31
2022-08-04T06:53:03.640Z,979.33
2022-08-04T06:54:03.749Z,979.45
2022-08-04T06:55:03.722Z,979.21
2022-08-04T06:56:03.699Z,979.36
2022-08-04T06:57:03.794Z,979.35
2022-08-04T06:58:04.140Z,979.38
2022-08-04T06:59:03.809Z,979.50
2022-08-04T07:00:03.832Z,979.31
2022-08-04T07:01:03.031Z,979.34
2022-08-04T07:02:03.079Z,979.34
2022-08-04T07:03:03.122Z,979.40
2022-08-04T07:04:03.229Z,979.42
2022-08-04T07:05:08.055Z,979.39
2022-08-04T07:06:14.163Z,979.45
2022-08-04T07:07:03.368Z,979.42
2022-08-04T07:08:03.283Z,979.35
2022-08-04T07:09:03.520Z,979.44
2022-08-04T07:10:03.337Z,979.35
2022-08-04T07:11:03.255Z,979.47
2022-08-04T07:12:03.388Z,979.38
2022-08-04T07:13:03.498Z,979.49
2022-08-04T07:14:03.620Z,979.49
2022-08-04T07:15:03.613Z,979.52
2022-08-04T07:16:03.644Z,979.58
2022-08-04T07:17:03.703Z,979.54
2022-08-04T07:18:03.680Z,979.51
2022-08-04T07:19:12.194Z,979.57
2022-08-04T07:20:03.735Z,979.57
2022-08-04T07:21:03.784Z,979.63
2022-08-04T07:22:25.952Z,979.48
2022-08-04T07:23:02.929Z,979.57
2022-08-04T07:24:03.007Z,979.63
2022-08-04T07:25:04.262Z,979.60
2022-08-04T07:26:13.322Z,979.57
2022-08-04T07:27:03.119Z,979.48
2022-08-04T07:28:03.133Z,979.54
2022-08-04T07:29:03.293Z,979.48
2022-08-04T07:30:05.005Z,979.51
2022-08-04T07:31:03.510Z,979.54
2022-08-04T07:32:04.067Z,979.54
2022-08-04T07:33:03.638Z,979.56
2022-08-04T07:34:22.174Z,979.47
2022-08-04T07:35:04.719Z,979.47
2022-08-04T07:36:10.854Z,979.47
2022-08-04T07:37:04.247Z,979.47
2022-08-04T07:38:03.774Z,979.62
2022-08-04T07:39:03.129Z,979.50
2022-08-04T07:40:03.151Z,979.56
2022-08-04T07:41:03.437Z,979.46
2022-08-04T07:42:03.080Z,979.52
2022-08-04T07:43:03.097Z,979.43
2022-08-04T07:44:03.136Z,979.61
2022-08-04T07:45:04.936Z,979.46
2022-08-04T07:46:03.164Z,979.60
2022-08-04T07:47:03.226Z,979.54
2022-08-04T07:48:06.183Z,979.48
2022-08-04T07:49:03.204Z,979.54
2022-08-04T07:50:03.147Z,979.51
2022-08-04T07:51:06.844Z,979.54
2022-08-04T07:52:03.185Z,979.53
2022-08-04T07:53:56.338Z,979.59
2022-08-04T07:54:03.432Z,979.62
2022-08-04T07:55:03.361Z,979.71
2022-08-04T07:56:03.363Z,979.68
2022-08-04T07:57:03.372Z,979.68
2022-08-04T07:58:03.351Z,979.68
2022-08-04T07:59:03.434Z,979.74
2022-08-04T08:00:03.475Z,979.68
2022-08-04T08:01:03.455Z,979.62
2022-08-04T08:02:03.326Z,979.56
2022-08-04T08:03:03.443Z,979.62
2022-08-04T08:04:03.611Z,979.53
2022-08-04T08:05:03.272Z,979.65
2022-08-04T08:06:34.843Z,979.65
2022-08-04T08:07:03.388Z,979.53
2022-08-04T08:08:03.299Z,979.59
2022-08-04T08:09:14.454Z,979.50
2022-08-04T08:10:03.436Z,979.58
2022-08-04T08:11:03.347Z,979.49
2022-08-04T08:12:52.046Z,979.61
2022-08-04T08:13:03.074Z,979.67
2022-08-04T08:14:03.292Z,979.58
2022-08-04T08:15:03.274Z,979.46
2022-08-04T08:16:03.179Z,979.55
2022-08-04T08:17:03.450Z,979.55
2022-08-04T08:18:03.432Z,979.61
2022-08-04T08:19:03.373Z,979.61
2022-08-04T08:20:03.508Z,979.58
2022-08-04T08:21:03.626Z,979.67
2022-08-04T08:22:03.762Z,979.55
2022-08-04T08:23:03.841Z,979.55
2022-08-04T08:24:04.567Z,979.55
2022-08-04T08:25:03.861Z,979.58
2022-08-04T08:26:02.942Z,979.52
2022-08-04T08:27:02.892Z,979.52
2022-08-04T08:28:03.078Z,979.58
2022-08-04T08:29:02.941Z,979.42
2022-08-04T08:30:02.998Z,979.39
2022-08-04T08:31:07.536Z,979.39
2022-08-04T08:32:09.081Z,979.39
2022-08-04T08:33:06.079Z,979.39
2022-08-04T08:34:03.205Z,979.42
2022-08-04T08:35:03.264Z,979.33
2022-08-04T08:36:03.219Z,979.35
2022-08-04T08:37:03.211Z,979.44
2022-08-04T08:38:03.460Z,979.26
2022-08-04T08:39:03.252Z,979.41
2022-08-04T08:40:03.321Z,979.35
2022-08-04T08:41:03.477Z,979.32
2022-08-04T08:42:03.375Z,979.32
2022-08-04T08:44:07.796Z,979.35
2022-08-04T08:44:37.922Z,979.49
2022-08-04T08:45:03.411Z,979.43
2022-08-04T08:46:03.476Z,979.40
2022-08-04T08:47:03.607Z,979.37
2022-08-04T08:48:06.938Z,979.34
2022-08-04T08:49:03.817Z,979.28
2022-08-04T08:50:05.102Z,979.39
2022-08-04T08:51:03.903Z,979.36
2022-08-04T08:52:04.060Z,979.30
2022-08-04T08:53:03.897Z,979.18
2022-08-04T08:54:03.921Z,979.33
2022-08-04T08:55:03.865Z,979.39
2022-08-04T08:56:03.051Z,979.42
2022-08-04T08:57:03.048Z,979.30
2022-08-04T08:58:03.165Z,979.33
2022-08-04T08:59:03.022Z,979.39
2022-08-04T09:00:03.093Z,979.35
2022-08-04T09:01:03.249Z,979.29
2022-08-04T09:02:03.291Z,979.41
2022-08-04T09:03:05.534Z,979.32
2022-08-04T09:04:03.197Z,979.38
2022-08-04T09:05:03.178Z,979.38
2022-08-04T09:06:03.199Z,979.34
2022-08-04T09:07:03.314Z,979.31
2022-08-04T09:08:03.319Z,979.40
2022-08-04T09:09:03.430Z,979.34
2022-08-04T09:10:03.536Z,979.37
2022-08-04T09:11:03.529Z,979.49
2022-08-04T09:12:03.510Z,979.37
2022-08-04T09:13:03.467Z,979.37
2022-08-04T09:14:03.547Z,979.43
2022-08-04T09:15:03.611Z,979.46
2022-08-04T09:16:03.589Z,979.58
2022-08-04T09:17:03.788Z,979.55
2022-08-04T09:18:03.757Z,979.43
2022-08-04T09:19:03.815Z,979.49
2022-08-04T09:20:02.966Z,979.49
2022-08-04T09:21:02.941Z,979.40
2022-08-04T09:22:02.988Z,979.37
2022-08-04T09:23:03.132Z,979.43
2022-08-04T09:24:03.235Z,979.40
2022-08-04T09:25:03.359Z,979.34
2022-08-04T09:26:03.311Z,979.49
2022-08-04T09:27:03.386Z,979.58
2022-08-04T09:28:09.887Z,979.42
2022-08-04T09:29:03.385Z,979.34
2022-08-04T09:30:03.454Z,979.49
2022-08-04T09:31:03.467Z,979.39
2022-08-04T09:32:07.971Z,979.39
2022-08-04T09:33:03.683Z,979.51
2022-08-04T09:34:03.751Z,979.42
2022-08-04T09:35:13.478Z,979.33
2022-08-04T09:36:03.836Z,979.42
2022-08-04T09:37:03.873Z,979.42
2022-08-04T09:38:02.938Z,979.36
2022-08-04T09:39:03.151Z,979.54
2022-08-04T09:40:03.051Z,979.63
2022-08-04T09:41:05.281Z,979.54
2022-08-04T09:42:03.056Z,979.45
2022-08-04T09:43:06.282Z,979.52
2022-08-04T09:44:56.339Z,979.46
2022-08-04T09:45:06.959Z,979.40
2022-08-04T09:46:03.633Z,979.58
2022-08-04T09:47:03.669Z,979.58
2022-08-04T09:48:03.809Z,979.61
2022-08-04T09:49:03.800Z,979.46
2022-08-04T09:50:03.732Z,979.46
2022-08-04T09:51:03.776Z,979.55
2022-08-04T09:52:03.914Z,979.43
2022-08-04T09:53:03.881Z,979.55
2022-08-04T09:54:02.928Z,979.43
2022-08-04T09:55:03.858Z,979.46
2022-08-04T09:56:04.220Z,979.49
2022-08-04T09:57:03.946Z,979.34
2022-08-04T09:58:02.902Z,979.49
2022-08-04T09:59:02.900Z,979.42
2022-08-04T10:00:03.225Z,979.33
2022-08-04T10:01:03.195Z,979.27
2022-08-04T10:02:03.219Z,979.36
2022-08-04T10:03:03.365Z,979.12
2022-08-04T10:04:03.299Z,979.27
2022-08-04T10:05:03.411Z,979.21
2022-08-04T10:06:03.359Z,979.18
2022-08-04T10:07:03.485Z,979.20
2022-08-04T10:08:17.390Z,979.26
2022-08-04T10:09:03.711Z,979.14
2022-08-04T10:10:03.766Z,979.26
2022-08-04T10:11:03.714Z,979.26
2022-08-04T10:12:04.170Z,979.26
2022-08-04T10:13:04.219Z,979.41
2022-08-04T10:14:03.071Z,979.35
2022-08-04T10:15:03.033Z,979.27
2022-08-04T10:16:03.070Z,979.45
2022-08-04T10:17:03.222Z,979.39
2022-08-04T10:18:03.256Z,979.36
2022-08-04T10:19:08.657Z,979.27
2022-08-04T10:20:03.298Z,979.42
2022-08-04T10:21:15.352Z,979.32
2022-08-04T10:22:34.460Z,979.20
2022-08-04T10:23:12.510Z,979.14
2022-08-04T10:24:03.306Z,979.32
2022-08-04T10:25:03.374Z,979.29
2022-08-04T10:26:08.629Z,979.20
2022-08-04T10:27:03.487Z,979.17
2022-08-04T10:28:03.575Z,979.35
2022-08-04T10:29:03.548Z,979.26
2022-08-04T10:30:03.745Z,979.20
2022-08-04T10:31:03.691Z,979.14
2022-08-04T10:32:03.772Z,979.16
2022-08-04T10:33:03.776Z,979.10
2022-08-04T10:34:03.786Z,979.25
2022-08-04T10:35:03.812Z,979.31
2022-08-04T10:36:03.931Z,979.28
2022-08-04T10:37:03.895Z,979.25
2022-08-04T10:38:03.210Z,979.22
2022-08-04T10:39:03.160Z,979.16
2022-08-04T10:40:03.256Z,979.22
2022-08-04T10:41:02.992Z,979.16
2022-08-04T10:42:03.028Z,979.25
2022-08-04T10:43:02.956Z,979.19
2022-08-04T10:44:03.845Z,979.16
2022-08-04T10:45:03.041Z,979.04
2022-08-04T10:46:03.118Z,979.19
2022-08-04T10:47:03.057Z,979.07
2022-08-04T10:48:03.053Z,979.10
2022-08-04T10:49:03.102Z,979.19
2022-08-04T10:50:03.084Z,979.07
2022-08-04T10:51:03.089Z,978.98
2022-08-04T10:52:03.095Z,978.97
2022-08-04T10:53:03.179Z,978.97
2022-08-04T10:54:03.199Z,979.03
2022-08-04T10:55:03.220Z,978.97
2022-08-04T10:56:08.912Z,978.91
2022-08-04T10:57:03.294Z,978.97
2022-08-04T10:58:03.267Z,978.94
2022-08-04T10:59:03.429Z,978.97
2022-08-04T11:00:04.615Z,978.91
2022-08-04T11:01:03.364Z,978.91
2022-08-04T11:02:04.230Z,978.85
2022-08-04T11:03:03.589Z,978.91
2022-08-04T11:04:03.448Z,978.94
2022-08-04T11:05:03.559Z,978.82
2022-08-04T11:06:03.588Z,978.82
2022-08-04T11:07:03.726Z,978.88
2022-08-04T11:08:10.126Z,978.82
2022-08-04T11:09:04.590Z,978.85
2022-08-04T11:10:03.767Z,978.92
2022-08-04T11:11:03.924Z,978.89
2022-08-04T11:12:02.936Z,978.83
2022-08-04T11:13:03.037Z,978.77
2022-08-04T11:14:02.969Z,978.80
2022-08-04T11:15:03.039Z,978.86
2022-08-04T11:16:02.955Z,978.83
2022-08-04T11:17:03.093Z,978.89
2022-08-04T11:18:07.080Z,978.77
2022-08-04T11:19:03.206Z,978.71
2022-08-04T11:20:34.896Z,978.77
2022-08-04T11:21:03.238Z,978.70
2022-08-04T11:22:07.939Z,978.73
2022-08-04T11:23:03.278Z,978.73
2022-08-04T11:24:03.282Z,978.79
2022-08-04T11:25:03.424Z,978.61
2022-08-04T11:26:03.463Z,978.79
2022-08-04T11:27:03.491Z,978.76
2022-08-04T11:28:03.546Z,978.88
2022-08-04T11:29:04.880Z,978.69
2022-08-04T11:30:03.514Z,978.66
2022-08-04T11:31:03.561Z,978.60
2022-08-04T11:32:03.609Z,978.81
2022-08-04T11:33:03.752Z,978.81
2022-08-04T11:34:03.814Z,978.84
2022-08-04T11:35:03.847Z,978.78
2022-08-04T11:36:03.894Z,978.89
2022-08-04T11:37:03.888Z,978.89
2022-08-04T11:38:02.992Z,978.95
2022-08-04T11:39:03.052Z,978.80
2022-08-04T11:40:02.970Z,978.98
2022-08-04T11:41:03.700Z,978.90
2022-08-04T11:42:03.108Z,978.90
2022-08-04T11:43:03.203Z,978.87
2022-08-04T11:44:12.450Z,978.99
2022-08-04T11:45:04.031Z,978.81
2022-08-04T11:46:03.375Z,978.87
2022-08-04T11:47:03.449Z,978.87
2022-08-04T11:48:03.578Z,979.03
2022-08-04T11:49:03.638Z,978.97
2022-08-04T11:50:03.693Z,978.94
2022-08-04T11:51:07.157Z,978.79
2022-08-04T11:52:03.840Z,978.85
2022-08-04T11:53:03.804Z,978.76
2022-08-04T11:54:03.775Z,978.82
2022-08-04T11:55:03.693Z,978.85
2022-08-04T11:56:11.342Z,978.82
2022-08-04T11:57:03.807Z,978.70
2022-08-04T11:58:02.970Z,978.81
2022-08-04T11:59:02.928Z,978.69
2022-08-04T12:00:07.948Z,978.75
2022-08-04T12:01:03.071Z,978.72
2022-08-04T12:02:03.128Z,978.90
2022-08-04T12:03:03.033Z,978.90
2022-08-04T12:04:04.636Z,978.90
2022-08-04T12:05:03.131Z,978.84
2022-08-04T12:06:03.188Z,978.77
2022-08-04T12:07:41.997Z,978.96
2022-08-04T12:08:02.975Z,978.81
2022-08-04T12:09:03.088Z,978.86
2022-08-04T12:10:03.180Z,978.74
2022-08-04T12:11:03.136Z,978.77
2022-08-04T12:12:03.131Z,978.77
2022-08-04T12:13:03.569Z,978.65
2022-08-04T12:14:03.891Z,978.71
2022-08-04T12:15:03.266Z,978.62
2022-08-04T12:16:03.365Z,978.65
2022-08-04T12:17:03.473Z,978.74
2022-08-04T12:18:04.012Z,978.77
2022-08-04T12:19:03.594Z,978.53
2022-08-04T12:20:35.543Z,978.71
2022-08-04T12:21:03.713Z,978.84
2022-08-04T12:22:04.300Z,978.84
2022-08-04T12:23:06.516Z,978.72
2022-08-04T12:24:03.101Z,978.69
2022-08-04T12:25:03.177Z,978.67
2022-08-04T12:26:03.141Z,978.52
2022-08-04T12:27:03.092Z,978.64
2022-08-04T12:28:03.139Z,978.65